Time;durP1;ratioP1;P1;durP2;ratioP2;P2;SDS_P1;SDS_P2;PMS_P1;PMS_P2;Temp;Humidity;BMP_temperature;BMP_pressure;BME280_temperature;BME280_humidity;BME280_pressure;Samples;Min_cycle;Max_cycle;Signal;HPM_P1;HPM_P2
2023/06/21 00:01:02;;;;;;;4.65;2.10;;;21.60;99.90;;;;;;5051608;28;20234;-76
2023/06/21 00:03:29;;;;;;;2.65;1.98;;;21.50;99.90;;;;;;5050846;28;20589;-73
2023/06/21 00:05:56;;;;;;;2.60;2.30;;;21.40;99.90;;;;;;5051365;28;20245;-71
2023/06/21 00:08:23;;;;;;;2.97;2.22;;;21.20;99.90;;;;;;5049782;28;20274;-76
2023/06/21 00:10:50;;;;;;;2.33;1.88;;;21.20;99.90;;;;;;5051021;28;20751;-69
2023/06/21 00:13:17;;;;;;;4.30;2.20;;;21.00;99.90;;;;;;5051092;28;20701;-71
2023/06/21 00:15:44;;;;;;;2.72;2.10;;;21.00;99.90;;;;;;5050623;28;20292;-70
2023/06/21 00:18:13;;;;;;;3.10;2.25;;;21.10;99.90;;;;;;5051095;28;20621;-72
2023/06/21 00:20:40;;;;;;;3.53;2.35;;;21.00;99.90;;;;;;5050844;28;20229;-75
2023/06/21 00:23:08;;;;;;;2.80;2.40;;;20.90;99.90;;;;;;5050806;28;20740;-70
2023/06/21 00:25:35;;;;;;;3.15;2.80;;;20.90;99.90;;;;;;5050729;28;20217;-70
2023/06/21 00:28:02;;;;;;;3.60;3.30;;;21.00;99.90;;;;;;5050558;28;20741;-71
2023/06/21 00:30:29;;;;;;;1.67;1.55;;;20.90;99.90;;;;;;5050598;28;20241;-69
2023/06/21 00:32:57;;;;;;;2.70;1.77;;;20.90;99.90;;;;;;5050806;28;20203;-75
2023/06/21 00:35:25;;;;;;;3.42;1.98;;;20.90;99.90;;;;;;5051155;28;20207;-71
2023/06/21 00:37:55;;;;;;;3.60;2.40;;;20.90;99.90;;;;;;5050792;28;20239;-76
2023/06/21 00:40:25;;;;;;;2.25;2.05;;;20.90;99.90;;;;;;5051448;28;20210;-71
2023/06/21 00:42:52;;;;;;;4.00;2.30;;;20.80;99.90;;;;;;5050918;28;20261;-71
2023/06/21 00:45:19;;;;;;;3.60;2.25;;;20.90;99.90;;;;;;5050759;28;20243;-75
2023/06/21 00:47:46;;;;;;;2.50;2.30;;;21.00;99.90;;;;;;5050158;28;20239;-70
2023/06/21 00:50:14;;;;;;;4.72;2.15;;;20.90;99.90;;;;;;5050236;28;20577;-70
2023/06/21 00:52:43;;;;;;;4.63;2.60;;;21.00;99.90;;;;;;5050263;28;20242;-70
2023/06/21 00:55:12;;;;;;;6.45;2.40;;;21.00;99.90;;;;;;5050355;28;20677;-73
2023/06/21 00:57:40;;;;;;;2.47;2.28;;;21.10;99.90;;;;;;5050265;28;20260;-76
2023/06/21 01:00:12;;;;;;;6.95;3.88;;;21.20;99.90;;;;;;5050317;28;20687;-69
2023/06/21 01:02:39;;;;;;;2.60;2.40;;;21.10;99.90;;;;;;5049983;28;20218;-70
2023/06/21 01:05:07;;;;;;;3.90;3.03;;;20.90;99.90;;;;;;5050167;28;20571;-75
2023/06/21 01:07:43;;;;;;;3.33;2.50;;;21.00;99.90;;;;;;5050011;28;20230;-73
2023/06/21 01:10:21;;;;;;;2.83;2.10;;;21.00;99.90;;;;;;5050340;28;20660;-70
2023/06/21 01:13:04;;;;;;;3.72;2.30;;;21.00;99.90;;;;;;5049914;28;20225;-76
2023/06/21 01:15:39;;;;;;;3.70;2.58;;;21.00;99.90;;;;;;5049737;28;20214;-71
2023/06/21 01:18:08;;;;;;;2.40;2.20;;;21.10;99.90;;;;;;5050306;28;20242;-70
2023/06/21 01:20:37;;;;;;;7.35;2.58;;;21.00;99.90;;;;;;5049662;28;20203;-71
2023/06/21 01:23:22;;;;;;;3.50;2.60;;;21.00;99.90;;;;;;5050234;28;20261;-73
2023/06/21 01:26:08;;;;;;;2.80;2.50;;;21.10;99.90;;;;;;5050101;28;20211;-70
2023/06/21 01:28:48;;;;;;;3.35;2.70;;;21.10;99.90;;;;;;5049753;28;20265;-70
2023/06/21 01:31:17;;;;;;;3.28;2.95;;;21.10;99.90;;;;;;5050360;28;20224;-70
2023/06/21 01:33:45;;;;;;;3.53;2.90;;;21.20;99.90;;;;;;5049622;28;20826;-70
2023/06/21 01:36:13;;;;;;;4.50;2.85;;;21.30;99.90;;;;;;5049893;28;20297;-70
2023/06/21 01:38:40;;;;;;;3.28;2.80;;;21.20;99.90;;;;;;5049862;28;20210;-76
2023/06/21 01:41:10;;;;;;;3.88;2.95;;;21.20;99.90;;;;;;5054046;28;20203;-70
2023/06/21 01:43:38;;;;;;;3.17;2.85;;;21.30;99.90;;;;;;5053517;28;20693;-71
2023/06/21 01:46:07;;;;;;;3.47;2.58;;;21.20;99.90;;;;;;5053995;28;20234;-70
2023/06/21 01:48:37;;;;;;;5.68;3.55;;;21.10;99.90;;;;;;5053303;28;20931;-74
2023/06/21 01:51:06;;;;;;;4.22;3.33;;;21.10;99.90;;;;;;5053570;28;20218;-72
2023/06/21 01:53:34;;;;;;;5.95;3.05;;;21.10;99.90;;;;;;5053906;28;20242;-73
2023/06/21 01:56:03;;;;;;;4.22;3.20;;;21.20;99.90;;;;;;5053850;28;20290;-72
2023/06/21 01:58:31;;;;;;;3.88;3.30;;;21.20;99.90;;;;;;5053426;28;20199;-70
2023/06/21 02:01:00;;;;;;;4.18;3.28;;;21.20;99.90;;;;;;5053616;28;20207;-73
2023/06/21 02:03:28;;;;;;;3.22;2.90;;;21.30;99.90;;;;;;5053036;28;20211;-72
2023/06/21 02:06:00;;;;;;;4.97;3.65;;;21.30;99.90;;;;;;5053839;28;20213;-72
2023/06/21 02:08:28;;;;;;;3.33;2.85;;;21.30;99.90;;;;;;5052904;28;20730;-74
2023/06/21 02:10:55;;;;;;;3.75;3.20;;;21.30;99.90;;;;;;5053601;28;20242;-73
2023/06/21 02:13:26;;;;;;;4.90;3.50;;;21.30;99.90;;;;;;5053534;28;20265;-75
2023/06/21 02:15:54;;;;;;;4.45;3.10;;;21.40;99.90;;;;;;5053488;28;20211;-75
2023/06/21 02:18:22;;;;;;;4.63;3.58;;;21.40;99.90;;;;;;5053495;28;20242;-75
2023/06/21 02:20:49;;;;;;;5.72;3.50;;;21.40;99.90;;;;;;5053207;28;20309;-72
2023/06/21 02:23:17;;;;;;;4.78;3.08;;;21.40;99.90;;;;;;5053301;28;20214;-71
2023/06/21 02:25:44;;;;;;;3.40;2.83;;;21.20;99.90;;;;;;5052760;28;20242;-72
2023/06/21 02:28:11;;;;;;;4.90;3.60;;;21.20;99.90;;;;;;5053106;28;20343;-76
2023/06/21 02:30:38;;;;;;;3.80;3.38;;;21.20;99.90;;;;;;5052836;28;20252;-75
2023/06/21 02:33:05;;;;;;;3.00;2.70;;;21.30;99.90;;;;;;5052870;28;20663;-70
2023/06/21 02:35:32;;;;;;;4.38;2.88;;;21.20;99.90;;;;;;5053020;28;20242;-75
2023/06/21 02:37:59;;;;;;;4.25;3.20;;;21.30;99.90;;;;;;5052953;28;20246;-75
2023/06/21 02:40:27;;;;;;;4.22;3.47;;;21.20;99.90;;;;;;5052710;28;20740;-70
2023/06/21 02:42:54;;;;;;;5.07;3.45;;;21.10;99.90;;;;;;5053010;28;20733;-76
2023/06/21 02:45:21;;;;;;;6.18;4.55;;;21.10;99.90;;;;;;5053228;28;20254;-74
2023/06/21 02:47:48;;;;;;;3.90;3.20;;;21.10;99.90;;;;;;5052201;28;20235;-71
2023/06/21 02:50:17;;;;;;;6.63;3.67;;;21.10;99.90;;;;;;5052028;28;20250;-75
2023/06/21 02:52:44;;;;;;;4.00;3.38;;;20.90;99.90;;;;;;5051826;28;20207;-71
2023/06/21 02:55:11;;;;;;;6.13;3.90;;;21.00;99.90;;;;;;5052673;28;20242;-70
2023/06/21 02:57:40;;;;;;;5.70;4.30;;;21.10;99.90;;;;;;5052468;28;20210;-71
2023/06/21 03:00:17;;;;;;;5.10;3.53;;;21.00;99.90;;;;;;5052721;28;20231;-70
2023/06/21 03:02:44;;;;;;;3.95;3.55;;;21.00;99.90;;;;;;5052176;28;20272;-74
2023/06/21 03:05:12;;;;;;;4.82;3.83;;;21.00;99.90;;;;;;5052524;28;20202;-70
2023/06/21 03:07:43;;;;;;;3.63;3.25;;;21.00;99.90;;;;;;5051921;28;20231;-71
2023/06/21 03:10:11;;;;;;;4.10;3.70;;;21.00;99.90;;;;;;5052572;28;20689;-71
2023/06/21 03:12:40;;;;;;;6.30;3.50;;;21.10;99.90;;;;;;5052027;28;20671;-72
2023/06/21 03:15:09;;;;;;;4.38;3.55;;;21.10;99.90;;;;;;5052073;28;20290;-75
2023/06/21 03:17:36;;;;;;;5.53;4.20;;;21.00;99.90;;;;;;5051717;28;20207;-74
2023/06/21 03:20:08;;;;;;;7.03;3.22;;;20.90;99.90;;;;;;5052300;28;20242;-70
2023/06/21 03:22:35;;;;;;;5.10;4.28;;;21.00;99.90;;;;;;5051588;28;20663;-71
2023/06/21 03:25:02;;;;;;;5.20;4.22;;;21.10;99.90;;;;;;5052130;28;20210;-74
2023/06/21 03:27:29;;;;;;;5.85;4.82;;;21.00;99.90;;;;;;5051785;28;20211;-70
2023/06/21 03:29:57;;;;;;;6.13;4.53;;;20.90;99.90;;;;;;5052276;28;20245;-71
2023/06/21 03:32:24;;;;;;;6.90;4.40;;;20.80;99.90;;;;;;5051746;28;20199;-71
2023/06/21 03:34:51;;;;;;;5.85;4.60;;;20.90;99.90;;;;;;5052094;28;20238;-70
2023/06/21 03:37:18;;;;;;;5.90;4.70;;;20.80;99.90;;;;;;5052174;28;20234;-70
2023/06/21 03:39:45;;;;;;;6.13;4.78;;;20.80;99.90;;;;;;5051391;28;20253;-74
2023/06/21 03:42:12;;;;;;;4.95;4.18;;;20.90;99.90;;;;;;5052042;28;20238;-70
2023/06/21 03:44:39;;;;;;;6.78;4.40;;;20.90;99.90;;;;;;5051334;28;20217;-70
2023/06/21 03:47:07;;;;;;;10.52;4.32;;;20.90;99.90;;;;;;5051552;28;20234;-70
2023/06/21 03:49:34;;;;;;;7.80;4.75;;;21.00;99.90;;;;;;5051178;28;20572;-71
2023/06/21 03:52:01;;;;;;;5.07;4.10;;;21.00;99.90;;;;;;5051726;28;20242;-71
2023/06/21 03:54:28;;;;;;;5.22;4.63;;;20.90;99.90;;;;;;5051693;28;20249;-70
2023/06/21 03:56:55;;;;;;;4.88;4.20;;;21.00;99.90;;;;;;5051284;28;20262;-71
2023/06/21 03:59:22;;;;;;;5.15;4.35;;;20.90;99.90;;;;;;5051797;28;20218;-75
2023/06/21 04:01:49;;;;;;;6.35;4.00;;;20.90;99.90;;;;;;5050664;28;20215;-70
2023/06/21 04:04:17;;;;;;;5.25;4.75;;;21.00;99.90;;;;;;5051679;28;20239;-71
2023/06/21 04:06:44;;;;;;;7.00;5.00;;;21.00;99.90;;;;;;5051039;28;20280;-75
2023/06/21 04:09:11;;;;;;;5.30;4.80;;;20.90;99.90;;;;;;5051254;28;20266;-72
2023/06/21 04:11:38;;;;;;;5.60;3.85;;;21.00;99.90;;;;;;5050981;28;20260;-75
2023/06/21 04:14:05;;;;;;;5.70;5.20;;;21.00;99.90;;;;;;5051041;28;20211;-70
2023/06/21 04:16:32;;;;;;;4.57;4.18;;;21.00;99.90;;;;;;5050628;28;20690;-71
2023/06/21 04:18:58;;;;;;;5.20;4.57;;;21.00;99.90;;;;;;5051073;28;20230;-71
2023/06/21 04:21:27;;;;;;;5.82;4.22;;;21.00;99.90;;;;;;5051370;28;20246;-71
2023/06/21 04:23:54;;;;;;;9.02;4.60;;;20.90;99.90;;;;;;5051188;28;20654;-75
2023/06/21 04:26:22;;;;;;;5.72;5.13;;;20.80;99.90;;;;;;5051359;28;20234;-70
2023/06/21 04:28:49;;;;;;;6.00;5.05;;;20.80;99.90;;;;;;5050157;28;20234;-74
2023/06/21 04:31:16;;;;;;;6.50;4.07;;;20.70;99.90;;;;;;5051142;28;20219;-71
2023/06/21 04:33:43;;;;;;;9.10;4.32;;;20.80;99.90;;;;;;5050362;28;20251;-71
2023/06/21 04:36:10;;;;;;;5.07;4.35;;;20.90;99.90;;;;;;5051143;28;20269;-70
2023/06/21 04:38:38;;;;;;;4.90;4.15;;;21.00;99.90;;;;;;5050616;28;20242;-73
2023/06/21 04:41:05;;;;;;;4.50;4.10;;;21.00;99.90;;;;;;5050666;28;20246;-75
2023/06/21 04:43:32;;;;;;;5.43;4.85;;;21.00;99.90;;;;;;5050207;28;20206;-72
2023/06/21 04:45:59;;;;;;;7.40;4.35;;;21.00;99.90;;;;;;5050658;28;20238;-71
2023/06/21 04:48:26;;;;;;;5.18;4.68;;;20.90;99.90;;;;;;5050162;28;20317;-70
2023/06/21 04:50:53;;;;;;;6.45;4.43;;;20.90;99.90;;;;;;5050713;28;20245;-71
2023/06/21 04:53:29;;;;;;;6.22;4.30;;;20.80;99.90;;;;;;5050829;28;20264;-70
2023/06/21 04:55:58;;;;;;;6.18;4.82;;;20.90;99.90;;;;;;5050526;28;20211;-74
2023/06/21 04:58:25;;;;;;;7.57;5.35;;;20.90;99.90;;;;;;5050060;28;20203;-70
2023/06/21 05:00:52;;;;;;;7.00;5.07;;;20.70;99.90;;;;;;5050975;28;20203;-70
2023/06/21 05:03:19;;;;;;;8.90;5.53;;;20.80;99.90;;;;;;5050459;28;20328;-71
2023/06/21 05:05:46;;;;;;;8.32;5.22;;;20.90;99.90;;;;;;5049804;28;20698;-70
2023/06/21 05:08:13;;;;;;;7.43;5.18;;;20.90;99.90;;;;;;5050256;28;20230;-71
2023/06/21 05:10:40;;;;;;;8.30;4.80;;;20.90;99.90;;;;;;5049641;28;20284;-75
2023/06/21 05:13:08;;;;;;;6.53;5.05;;;20.80;99.90;;;;;;5049899;28;20808;-73
2023/06/21 05:15:35;;;;;;;5.97;4.47;;;20.70;99.90;;;;;;5049482;28;20238;-70
2023/06/21 05:18:03;;;;;;;6.10;4.82;;;20.80;99.90;;;;;;5050262;28;20242;-71
2023/06/21 05:20:30;;;;;;;7.10;4.97;;;20.70;99.90;;;;;;5049902;28;20254;-72
2023/06/21 05:22:57;;;;;;;5.70;5.15;;;20.80;99.90;;;;;;5050171;28;20245;-70
2023/06/21 05:25:24;;;;;;;6.50;4.90;;;20.90;99.90;;;;;;5050485;28;20298;-71
2023/06/21 05:27:51;;;;;;;5.95;5.28;;;20.90;99.90;;;;;;5050460;28;20236;-70
2023/06/21 05:30:19;;;;;;;6.38;4.97;;;21.00;99.90;;;;;;5050430;28;20288;-71
2023/06/21 05:32:46;;;;;;;5.30;4.68;;;21.00;99.90;;;;;;5049643;28;20234;-71
2023/06/21 05:35:13;;;;;;;9.55;4.85;;;21.10;99.90;;;;;;5050147;28;20265;-71
2023/06/21 05:37:40;;;;;;;6.30;4.55;;;21.10;99.90;;;;;;5049375;28;20319;-71
2023/06/21 05:40:08;;;;;;;6.10;5.50;;;21.10;99.90;;;;;;5050039;28;20624;-71
2023/06/21 05:42:35;;;;;;;9.48;5.07;;;21.10;99.90;;;;;;5049514;28;20206;-70
2023/06/21 05:45:02;;;;;;;5.65;4.82;;;21.10;99.90;;;;;;5050038;28;20249;-71
2023/06/21 05:47:30;;;;;;;7.05;6.30;;;21.10;99.90;;;;;;5049795;28;20234;-74
2023/06/21 05:49:57;;;;;;;8.63;4.55;;;21.20;99.90;;;;;;5036240;28;20274;-71
2023/06/21 05:52:24;;;;;;;11.05;5.80;;;21.20;99.90;;;;;;5049751;28;20309;-71
2023/06/21 05:54:51;;;;;;;6.43;4.80;;;21.30;99.90;;;;;;5049848;28;20234;-74
2023/06/21 05:57:18;;;;;;;9.77;5.88;;;21.30;99.90;;;;;;5049952;28;20245;-71
2023/06/21 05:59:45;;;;;;;6.55;5.13;;;21.20;99.90;;;;;;5049384;28;20369;-71
2023/06/21 06:02:12;;;;;;;6.47;5.40;;;21.20;99.90;;;;;;5049826;28;20238;-72
2023/06/21 06:04:40;;;;;;;8.07;4.85;;;21.20;99.90;;;;;;5049101;28;20202;-71
2023/06/21 06:07:07;;;;;;;8.07;5.20;;;21.20;99.90;;;;;;5049878;28;20325;-71
2023/06/21 06:09:34;;;;;;;8.18;5.63;;;21.20;99.90;;;;;;5049520;28;20293;-75
2023/06/21 06:12:01;;;;;;;8.55;6.30;;;21.20;99.90;;;;;;5049645;28;20332;-71
2023/06/21 06:14:28;;;;;;;6.82;6.13;;;21.20;99.90;;;;;;5049400;28;20234;-70
2023/06/21 06:16:54;;;;;;;13.90;6.18;;;21.10;99.90;;;;;;5049396;28;20243;-69
2023/06/21 06:19:21;;;;;;;9.35;5.97;;;21.10;99.90;;;;;;5049933;28;20320;-70
2023/06/21 06:21:50;;;;;;;7.40;5.85;;;21.10;99.90;;;;;;5049504;28;20626;-73
2023/06/21 06:24:17;;;;;;;6.28;5.07;;;21.10;99.90;;;;;;5049369;28;20626;-69
2023/06/21 06:26:44;;;;;;;6.90;5.53;;;21.10;99.90;;;;;;5052504;28;20242;-70
2023/06/21 06:29:10;;;;;;;6.65;5.97;;;21.00;99.90;;;;;;5053058;28;20226;-75
2023/06/21 06:31:37;;;;;;;8.05;5.38;;;20.90;99.90;;;;;;5052706;28;20683;-70
2023/06/21 06:34:04;;;;;;;8.65;5.55;;;21.00;99.90;;;;;;5053174;28;20246;-71
2023/06/21 06:36:31;;;;;;;7.07;5.18;;;21.00;99.90;;;;;;5052888;28;20678;-75
2023/06/21 06:38:59;;;;;;;9.40;6.25;;;20.90;99.90;;;;;;5052930;28;20353;-70
2023/06/21 06:41:27;;;;;;;10.07;7.20;;;20.90;99.90;;;;;;5038857;28;20242;-70
2023/06/21 06:43:54;;;;;;;8.02;6.30;;;20.90;99.90;;;;;;5053082;28;20207;-70
2023/06/21 06:46:21;;;;;;;14.15;8.45;;;20.80;99.90;;;;;;5053028;28;20237;-71
2023/06/21 06:48:47;;;;;;;8.90;6.70;;;20.90;99.90;;;;;;5052399;28;20313;-76
2023/06/21 06:51:14;;;;;;;11.38;9.20;;;20.90;99.90;;;;;;5052470;28;20663;-71
2023/06/21 06:53:41;;;;;;;11.30;6.88;;;20.90;99.90;;;;;;5052324;28;20234;-70
2023/06/21 06:56:10;;;;;;;14.30;6.80;;;21.00;99.90;;;;;;5053065;28;20734;-72
2023/06/21 06:58:37;;;;;;;13.02;7.22;;;21.00;99.90;;;;;;5052419;28;20238;-72
2023/06/21 07:01:05;;;;;;;7.28;6.32;;;21.00;99.90;;;;;;5052569;28;20215;-75
2023/06/21 07:03:32;;;;;;;15.07;8.48;;;21.00;99.90;;;;;;5052278;28;20203;-75
2023/06/21 07:05:59;;;;;;;9.60;6.07;;;21.20;99.90;;;;;;5052775;28;20237;-69
2023/06/21 07:08:26;;;;;;;11.35;5.95;;;21.50;99.90;;;;;;5051705;28;20211;-70
2023/06/21 07:10:54;;;;;;;9.75;6.90;;;21.70;99.90;;;;;;5052715;28;20250;-69
2023/06/21 07:13:23;;;;;;;6.55;5.45;;;21.90;99.90;;;;;;5052457;28;20207;-70
2023/06/21 07:15:50;;;;;;;13.65;6.93;;;22.10;99.90;;;;;;5052345;28;20256;-74
2023/06/21 07:18:17;;;;;;;8.00;5.70;;;22.20;99.90;;;;;;5052317;28;20685;-72
2023/06/21 07:20:44;;;;;;;10.48;6.40;;;22.20;99.90;;;;;;5051787;28;20265;-71
2023/06/21 07:23:11;;;;;;;6.38;5.78;;;22.20;99.90;;;;;;5051910;28;20246;-71
2023/06/21 07:25:38;;;;;;;8.30;5.88;;;22.20;99.90;;;;;;5051778;28;20245;-71
2023/06/21 07:28:05;;;;;;;8.43;6.10;;;22.30;99.90;;;;;;5052278;28;20203;-72
2023/06/21 07:30:34;;;;;;;9.75;6.43;;;22.40;99.90;;;;;;5051448;28;20741;-74
2023/06/21 07:33:01;;;;;;;7.55;6.07;;;22.60;99.90;;;;;;5052025;28;20701;-71
2023/06/21 07:35:27;;;;;;;8.32;6.40;;;22.70;99.90;;;;;;5051792;28;20207;-71
2023/06/21 07:37:54;;;;;;;7.45;6.28;;;22.90;99.90;;;;;;5050926;28;20268;-72
2023/06/21 07:40:21;;;;;;;7.28;6.22;;;23.00;99.90;;;;;;5052137;28;20234;-72
2023/06/21 07:42:49;;;;;;;7.82;6.50;;;23.20;99.90;;;;;;5051141;28;20238;-75
2023/06/21 07:45:16;;;;;;;11.05;6.80;;;23.40;99.90;;;;;;5051843;28;20206;-74
2023/06/21 07:47:44;;;;;;;9.73;7.57;;;23.60;99.90;;;;;;5051515;28;20223;-71
2023/06/21 07:50:11;;;;;;;10.85;7.93;;;23.80;99.90;;;;;;5051489;28;20284;-71
2023/06/21 07:52:38;;;;;;;9.25;5.75;;;23.90;99.90;;;;;;5051197;28;20238;-71
2023/06/21 07:55:10;;;;;;;9.25;6.25;;;23.90;99.90;;;;;;5051676;28;20707;-75
2023/06/21 07:57:38;;;;;;;12.55;5.78;;;24.10;99.90;;;;;;5051172;28;20673;-71
2023/06/21 08:00:11;;;;;;;9.80;6.60;;;24.00;99.90;;;;;;5051406;28;20207;-72
2023/06/21 08:02:38;;;;;;;9.07;5.55;;;24.10;99.90;;;;;;5051384;28;20217;-72
2023/06/21 08:05:07;;;;;;;8.00;6.50;;;24.50;99.90;;;;;;5051309;28;20231;-76
2023/06/21 08:07:34;;;;;;;10.35;5.15;;;24.20;99.90;;;;;;5050713;28;20246;-73
2023/06/21 08:10:01;;;;;;;7.82;5.93;;;24.50;99.90;;;;;;5051246;28;20258;-75
2023/06/21 08:12:28;;;;;;;10.30;6.28;;;24.80;99.90;;;;;;5051196;28;20207;-72
2023/06/21 08:14:55;;;;;;;9.73;6.15;;;24.80;99.90;;;;;;5050969;28;20644;-72
2023/06/21 08:17:22;;;;;;;8.05;6.40;;;25.00;99.90;;;;;;5051423;28;20671;-72
2023/06/21 08:19:49;;;;;;;8.65;6.15;;;24.90;99.90;;;;;;5050975;28;20203;-71
2023/06/21 08:22:17;;;;;;;10.75;6.07;;;24.70;99.90;;;;;;5050577;28;20654;-72
2023/06/21 08:24:44;;;;;;;9.43;6.68;;;24.80;99.90;;;;;;5050976;28;20662;-75
2023/06/21 08:27:11;;;;;;;9.35;5.60;;;24.80;99.90;;;;;;5050981;28;20237;-72
2023/06/21 08:29:38;;;;;;;9.15;6.38;;;24.60;99.90;;;;;;5050613;28;20261;-72
2023/06/21 08:32:06;;;;;;;11.38;6.38;;;24.60;99.90;;;;;;5051035;28;20253;-73
2023/06/21 08:34:33;;;;;;;7.85;7.05;;;24.60;99.90;;;;;;5050365;28;20299;-75
2023/06/21 08:37:00;;;;;;;6.50;5.68;;;24.60;99.90;;;;;;5050697;28;20253;-76
2023/06/21 08:39:28;;;;;;;11.48;6.63;;;24.60;99.90;;;;;;5050091;28;20234;-71
2023/06/21 08:41:55;;;;;;;9.77;6.68;;;24.50;99.90;;;;;;5051095;28;20242;-72
2023/06/21 08:44:22;;;;;;;7.50;6.28;;;24.30;99.90;;;;;;5051052;28;20203;-75
2023/06/21 08:46:49;;;;;;;8.95;6.95;;;24.20;99.90;;;;;;5050358;28;20234;-71
2023/06/21 08:49:19;;;;;;;13.20;7.07;;;24.20;99.90;;;;;;5049386;28;20213;-76
2023/06/21 08:51:47;;;;;;;9.63;7.70;;;24.20;99.90;;;;;;5049965;28;20272;-74
2023/06/21 08:54:15;;;;;;;11.82;6.95;;;24.10;99.90;;;;;;5050839;28;20246;-73
2023/06/21 08:56:49;;;;;;;8.93;6.13;;;24.00;99.90;;;;;;5049910;28;20241;-72
2023/06/21 08:59:22;;;;;;;14.23;7.53;;;23.80;99.90;;;;;;5050468;28;20248;-72
2023/06/21 09:01:55;;;;;;;11.75;6.47;;;23.70;99.90;;;;;;5050319;28;20245;-71
2023/06/21 09:04:26;;;;;;;7.28;6.13;;;23.70;99.90;;;;;;5050606;28;20260;-72
2023/06/21 09:06:55;;;;;;;10.27;7.65;;;23.70;99.90;;;;;;5050470;28;20713;-73
2023/06/21 09:09:23;;;;;;;11.63;6.47;;;23.80;99.90;;;;;;5050888;28;20238;-71
2023/06/21 09:11:53;;;;;;;9.98;6.78;;;23.80;99.90;;;;;;5050259;28;20203;-72
2023/06/21 09:14:21;;;;;;;10.75;6.57;;;23.70;99.90;;;;;;5050515;28;20674;-74
2023/06/21 09:16:48;;;;;;;9.05;6.55;;;23.60;99.90;;;;;;5049685;28;20587;-72
2023/06/21 09:19:15;;;;;;;7.22;6.53;;;23.40;99.90;;;;;;5049707;28;20649;-73
2023/06/21 09:21:43;;;;;;;9.82;7.80;;;23.30;99.90;;;;;;5050138;28;20207;-72
2023/06/21 09:24:11;;;;;;;12.45;7.38;;;23.20;99.90;;;;;;5050199;28;20293;-73
2023/06/21 09:26:38;;;;;;;14.07;8.23;;;23.10;99.90;;;;;;5049813;28;20710;-72
2023/06/21 09:29:06;;;;;;;13.40;7.97;;;23.10;99.90;;;;;;5049841;28;20254;-71
2023/06/21 09:31:33;;;;;;;10.68;9.02;;;23.10;99.90;;;;;;5049773;28;20234;-77
2023/06/21 09:34:00;;;;;;;9.05;6.88;;;23.00;99.90;;;;;;5050084;28;20269;-73
2023/06/21 09:36:27;;;;;;;15.18;7.78;;;23.00;99.90;;;;;;5049922;28;20260;-71
2023/06/21 09:39:07;;;;;;;9.32;7.38;;;23.00;99.90;;;;;;5050123;28;20241;-72
2023/06/21 09:41:34;;;;;;;10.13;7.25;;;23.00;99.90;;;;;;5049785;28;20210;-74
2023/06/21 09:44:01;;;;;;;9.73;6.13;;;23.00;99.90;;;;;;5050283;28;20242;-72
2023/06/21 09:46:29;;;;;;;6.97;5.53;;;23.00;99.90;;;;;;5049406;28;20694;-72
2023/06/21 09:49:07;;;;;;;7.00;5.80;;;23.10;99.90;;;;;;5050060;28;20238;-73
2023/06/21 09:51:35;;;;;;;10.32;5.82;;;23.30;99.90;;;;;;5049326;28;20230;-72
2023/06/21 09:54:07;;;;;;;8.15;5.68;;;23.40;99.90;;;;;;5049910;28;20242;-74
2023/06/21 09:56:36;;;;;;;9.10;5.53;;;23.50;99.90;;;;;;5049387;28;20238;-72
2023/06/21 09:59:03;;;;;;;8.75;6.40;;;23.70;99.90;;;;;;5050226;28;20260;-78
2023/06/21 10:01:44;;;;;;;7.90;5.90;;;23.80;99.90;;;;;;5052684;28;20203;-72
2023/06/21 10:04:12;;;;;;;9.73;6.22;;;23.90;99.90;;;;;;5053548;28;20256;-73
2023/06/21 10:06:48;;;;;;;10.52;6.32;;;23.90;99.90;;;;;;5053018;28;20207;-72
2023/06/21 10:09:15;;;;;;;8.95;5.97;;;23.80;99.90;;;;;;5053851;28;20220;-76
2023/06/21 10:11:44;;;;;;;12.15;5.63;;;23.80;99.90;;;;;;5052963;28;20761;-72
2023/06/21 10:14:19;;;;;;;8.93;6.18;;;23.80;99.90;;;;;;5053508;28;20757;-77
2023/06/21 10:16:50;;;;;;;8.93;6.40;;;23.90;99.90;;;;;;5052638;28;20206;-78
2023/06/21 10:19:18;;;;;;;9.60;6.43;;;24.00;99.90;;;;;;5053502;28;20214;-76
2023/06/21 10:21:45;;;;;;;8.05;7.03;;;24.20;99.90;;;;;;5053047;28;20239;-78
2023/06/21 10:24:14;;;;;;;10.70;6.20;;;24.30;99.90;;;;;;5053189;28;20238;-71
2023/06/21 10:26:44;;;;;;;7.25;6.00;;;24.50;99.90;;;;;;5053021;28;20211;-71
2023/06/21 10:29:13;;;;;;;9.70;7.10;;;24.60;99.90;;;;;;5053221;28;20225;-71
2023/06/21 10:31:44;;;;;;;10.10;5.50;;;24.80;99.90;;;;;;5052596;28;20269;-69
2023/06/21 10:34:20;;;;;;;7.13;6.03;;;24.90;99.90;;;;;;5052886;28;20297;-71
2023/06/21 10:36:52;;;;;;;8.68;6.60;;;24.60;99.90;;;;;;5052714;28;20213;-70
2023/06/21 10:39:24;;;;;;;10.02;6.68;;;24.50;99.90;;;;;;5052931;28;20245;-75
2023/06/21 10:41:51;;;;;;;8.32;6.28;;;24.20;99.90;;;;;;5053315;28;20214;-70
2023/06/21 10:44:20;;;;;;;7.68;6.55;;;24.10;99.90;;;;;;5052800;28;20691;-71
2023/06/21 10:46:48;;;;;;;9.65;6.50;;;23.90;99.90;;;;;;5052700;28;20238;-70
2023/06/21 10:49:17;;;;;;;8.15;6.45;;;24.00;99.90;;;;;;5052714;28;20260;-71
2023/06/21 10:51:45;;;;;;;9.77;7.47;;;24.00;99.90;;;;;;5052411;28;20321;-77
2023/06/21 10:54:13;;;;;;;8.15;6.78;;;24.00;99.90;;;;;;5052709;28;20243;-70
2023/06/21 10:56:40;;;;;;;10.57;6.82;;;24.10;99.90;;;;;;5052329;28;20207;-70
2023/06/21 10:59:07;;;;;;;10.38;7.95;;;24.20;99.90;;;;;;5052783;28;20245;-70
2023/06/21 11:01:34;;;;;;;7.32;6.50;;;24.30;99.90;;;;;;5052077;28;20658;-70
2023/06/21 11:04:01;;;;;;;8.63;6.68;;;24.70;99.90;;;;;;5052634;28;20242;-74
2023/06/21 11:06:33;;;;;;;9.02;6.68;;;24.70;99.90;;;;;;5052185;28;20242;-71
2023/06/21 11:09:08;;;;;;;15.32;6.53;;;24.70;99.90;;;;;;5052565;28;20206;-70
2023/06/21 11:11:37;;;;;;;7.63;6.63;;;24.60;99.90;;;;;;5050925;28;20241;-70
2023/06/21 11:14:04;;;;;;;11.65;7.80;;;24.70;99.90;;;;;;5052532;28;20213;-76
2023/06/21 11:16:32;;;;;;;9.13;6.30;;;24.80;99.90;;;;;;5051706;28;20237;-74
2023/06/21 11:19:04;;;;;;;16.77;7.78;;;24.90;99.90;;;;;;5052156;28;20667;-75
2023/06/21 11:21:42;;;;;;;12.25;7.32;;;24.90;99.90;;;;;;5051795;28;20678;-70
2023/06/21 11:24:10;;;;;;;8.13;6.10;;;24.90;99.90;;;;;;5052052;28;20631;-71
2023/06/21 11:26:54;;;;;;;14.00;6.85;;;25.00;99.90;;;;;;5052093;28;20234;-77
2023/06/21 11:29:21;;;;;;;6.88;5.72;;;24.90;99.90;;;;;;5052171;28;20286;-71
2023/06/21 11:31:48;;;;;;;11.00;7.25;;;24.70;99.90;;;;;;5051562;28;20319;-71
2023/06/21 11:34:25;;;;;;;10.70;7.93;;;24.60;99.90;;;;;;5052073;28;20634;-77
2023/06/21 11:36:53;;;;;;;9.45;7.55;;;24.60;99.90;;;;;;5052551;28;20210;-71
2023/06/21 11:39:24;;;;;;;11.70;6.72;;;24.70;99.90;;;;;;5052127;28;20656;-69
2023/06/21 11:41:59;;;;;;;9.77;7.13;;;25.00;99.90;;;;;;5052317;28;20293;-76
2023/06/21 11:44:27;;;;;;;8.68;7.13;;;25.20;99.90;;;;;;5050981;28;20248;-71
2023/06/21 11:47:19;;;;;;;9.50;7.20;;;25.30;99.90;;;;;;5051858;28;20235;-70
2023/06/21 11:49:57;;;;;;;8.82;6.00;;;25.40;99.90;;;;;;5048061;28;20214;-70
2023/06/21 11:52:33;;;;;;;7.57;6.30;;;25.80;99.90;;;;;;5051516;28;20222;-71
2023/06/21 11:55:11;;;;;;;9.75;7.30;;;25.90;99.90;;;;;;5051630;28;20218;-72
2023/06/21 11:57:43;;;;;;;9.07;6.78;;;26.20;99.90;;;;;;5051236;28;20670;-71
2023/06/21 12:00:11;;;;;;;8.25;6.93;;;26.20;99.90;;;;;;5037811;28;20238;-70
2023/06/21 12:02:38;;;;;;;9.25;7.50;;;26.30;99.90;;;;;;5051211;28;20239;-76
2023/06/21 12:05:06;;;;;;;10.35;7.18;;;26.20;99.90;;;;;;5051241;28;20734;-71
2023/06/21 12:07:35;;;;;;;10.80;8.10;;;26.10;99.90;;;;;;5051333;28;20214;-71
2023/06/21 12:10:02;;;;;;;9.35;7.65;;;26.10;99.90;;;;;;5051212;28;20682;-71
2023/06/21 12:12:29;;;;;;;9.63;7.03;;;26.10;99.90;;;;;;5050844;28;20246;-70
2023/06/21 12:14:58;;;;;;;14.20;7.93;;;26.20;99.90;;;;;;5051025;28;20249;-73
2023/06/21 12:17:25;;;;;;;8.60;7.00;;;26.40;99.90;;;;;;5051233;28;20217;-70
2023/06/21 12:19:52;;;;;;;14.07;8.10;;;26.40;99.90;;;;;;5051277;28;20641;-71
2023/06/21 12:22:22;;;;;;;9.77;7.78;;;26.70;99.90;;;;;;5051720;28;20211;-76
2023/06/21 12:24:54;;;;;;;9.68;7.22;;;26.80;99.90;;;;;;5051096;28;20234;-77
2023/06/21 12:27:21;;;;;;;9.77;8.18;;;26.90;99.90;;;;;;5051134;28;20253;-77
2023/06/21 12:29:50;;;;;;;9.38;6.85;;;27.10;99.90;;;;;;5050590;28;20245;-77
2023/06/21 12:32:19;;;;;;;14.05;7.65;;;27.00;99.90;;;;;;5050625;28;20281;-76
2023/06/21 12:34:46;;;;;;;10.73;7.72;;;27.00;99.90;;;;;;5050601;28;20689;-76
2023/06/21 12:37:20;;;;;;;14.45;8.25;;;26.90;99.90;;;;;;5050900;28;20234;-76
2023/06/21 12:39:54;;;;;;;12.88;7.47;;;26.70;99.90;;;;;;5036873;28;20206;-71
2023/06/21 12:42:21;;;;;;;11.73;7.10;;;26.70;99.90;;;;;;5050866;28;20249;-70
2023/06/21 12:44:48;;;;;;;11.85;8.27;;;26.60;99.90;;;;;;5050195;28;20659;-70
2023/06/21 12:47:16;;;;;;;9.05;8.00;;;26.60;99.90;;;;;;5051070;28;20206;-76
2023/06/21 12:49:48;;;;;;;13.00;8.10;;;26.80;99.90;;;;;;5050163;28;20230;-70
2023/06/21 12:52:15;;;;;;;9.73;7.40;;;26.90;99.90;;;;;;5050363;28;20242;-77